createdAt,value
2018-03-14T00:00:54.887Z,10.33
2018-03-14T00:03:22.029Z,10.43
2018-03-14T00:05:49.107Z,11.20
2018-03-14T00:08:15.432Z,13.70
2018-03-14T00:10:41.739Z,11.80
2018-03-14T00:13:08.828Z,12.13
2018-03-14T00:15:35.142Z,9.60
2018-03-14T00:18:01.495Z,10.93
2018-03-14T00:20:27.803Z,11.90
2018-03-14T00:22:54.162Z,11.80
2018-03-14T00:25:20.455Z,10.20
2018-03-14T00:27:47.516Z,10.00
2018-03-14T00:30:13.827Z,9.60
2018-03-14T00:32:40.926Z,11.33
2018-03-14T00:35:07.271Z,10.50
2018-03-14T00:37:33.600Z,11.53
2018-03-14T00:39:59.896Z,11.40
2018-03-14T00:42:26.202Z,12.40
2018-03-14T00:44:53.256Z,11.80
2018-03-14T00:47:20.324Z,11.30
2018-03-14T00:49:46.620Z,9.50
2018-03-14T00:52:13.741Z,11.30
2018-03-14T00:54:40.100Z,10.23
2018-03-14T00:57:07.156Z,12.60
2018-03-14T00:59:34.193Z,12.57
2018-03-14T01:02:00.514Z,10.73
2018-03-14T01:04:26.854Z,12.13
2018-03-14T01:06:53.963Z,11.60
2018-03-14T01:09:20.359Z,12.63
2018-03-14T01:11:46.687Z,12.30
2018-03-14T01:14:13.751Z,11.13
2018-03-14T01:16:40.073Z,12.10
2018-03-14T01:19:06.376Z,11.70
2018-03-14T01:21:32.726Z,12.47
2018-03-14T01:23:59.788Z,11.10
2018-03-14T01:26:26.112Z,12.00
2018-03-14T01:28:53.155Z,12.63
2018-03-14T01:31:20.171Z,11.03
2018-03-14T01:33:46.514Z,12.13
2018-03-14T01:36:13.562Z,12.40
2018-03-14T01:38:39.901Z,12.00
2018-03-14T01:41:06.207Z,9.80
2018-03-14T01:43:32.541Z,11.80
2018-03-14T01:46:00.326Z,12.40
2018-03-14T01:48:27.385Z,10.13
2018-03-14T01:50:54.440Z,11.67
2018-03-14T01:53:30.463Z,11.57
2018-03-14T01:55:58.308Z,11.87
2018-03-14T01:58:24.640Z,11.40
2018-03-14T02:00:50.983Z,12.23
2018-03-14T02:03:17.322Z,12.43
2018-03-14T02:05:43.588Z,12.27
2018-03-14T02:08:10.596Z,12.80
2018-03-14T02:10:36.931Z,12.37
2018-03-14T02:13:03.223Z,12.83
2018-03-14T02:15:29.536Z,12.70
2018-03-14T02:17:55.838Z,13.17
2018-03-14T02:20:22.176Z,13.40
2018-03-14T02:22:49.248Z,13.23
2018-03-14T02:25:15.575Z,12.90
2018-03-14T02:27:41.890Z,14.90
2018-03-14T02:30:08.923Z,14.00
2018-03-14T02:32:35.281Z,13.53
2018-03-14T02:35:01.632Z,12.50
2018-03-14T02:37:27.915Z,14.00
2018-03-14T02:39:54.217Z,13.37
2018-03-14T02:42:20.586Z,14.97
2018-03-14T02:44:46.869Z,14.53
2018-03-14T02:47:13.144Z,13.07
2018-03-14T02:49:39.479Z,16.27
2018-03-14T02:52:05.791Z,13.80
2018-03-14T02:54:32.088Z,16.07
2018-03-14T02:56:58.401Z,14.33
2018-03-14T02:59:24.712Z,14.63
2018-03-14T03:01:51.040Z,15.50
2018-03-14T03:04:18.884Z,14.10
2018-03-14T03:06:49.129Z,14.80
2018-03-14T03:09:15.431Z,16.23
2018-03-14T03:11:41.721Z,14.97
2018-03-14T03:14:08.035Z,14.27
2018-03-14T03:16:35.071Z,15.07
2018-03-14T03:19:02.131Z,15.00
2018-03-14T03:21:29.195Z,17.10
2018-03-14T03:23:55.520Z,15.70
2018-03-14T03:26:22.635Z,16.10
2018-03-14T03:28:48.966Z,15.90
2018-03-14T03:31:15.253Z,17.90
2018-03-14T03:33:41.543Z,14.93
2018-03-14T03:36:07.853Z,17.20
2018-03-14T03:38:34.158Z,17.00
2018-03-14T03:41:00.452Z,16.23
2018-03-14T03:43:26.770Z,15.60
2018-03-14T03:45:53.795Z,17.80
2018-03-14T03:48:20.095Z,15.80
2018-03-14T03:50:46.448Z,18.03
2018-03-14T03:53:12.783Z,17.13
2018-03-14T03:55:39.116Z,17.87
2018-03-14T03:58:05.447Z,16.50
2018-03-14T04:00:31.815Z,16.40
2018-03-14T04:02:58.861Z,16.33
2018-03-14T04:05:25.870Z,14.10
2018-03-14T04:07:52.193Z,14.77
2018-03-14T04:10:18.503Z,15.90
2018-03-14T04:12:44.832Z,15.17
2018-03-14T04:15:11.189Z,15.67
2018-03-14T04:17:37.457Z,15.63
2018-03-14T04:20:04.564Z,15.27
2018-03-14T04:22:30.869Z,14.20
2018-03-14T04:24:57.192Z,15.57
2018-03-14T04:27:23.493Z,15.53
2018-03-14T04:29:50.642Z,16.47
2018-03-14T04:32:16.946Z,13.63
2018-03-14T04:34:43.254Z,15.63
2018-03-14T04:37:14.381Z,14.23
2018-03-14T04:39:40.880Z,16.07
2018-03-14T04:42:07.915Z,14.80
2018-03-14T04:44:34.224Z,13.57
2018-03-14T04:47:00.521Z,12.87
2018-03-14T04:49:26.855Z,13.07
2018-03-14T04:51:57.310Z,12.00
2018-03-14T04:54:23.632Z,11.00
2018-03-14T04:56:49.977Z,11.70
2018-03-14T04:59:16.293Z,10.13
2018-03-14T05:01:43.557Z,10.97
2018-03-14T05:04:09.861Z,11.23
2018-03-14T05:06:36.171Z,10.43
2018-03-14T05:09:03.263Z,10.70
2018-03-14T05:11:29.581Z,10.20
2018-03-14T05:13:55.909Z,11.67
2018-03-14T05:16:22.227Z,11.30
2018-03-14T05:18:48.499Z,11.60
2018-03-14T05:21:16.832Z,9.50
2018-03-14T05:23:43.172Z,10.17
2018-03-14T05:26:09.491Z,10.90
2018-03-14T05:28:36.554Z,11.13
2018-03-14T05:31:02.868Z,11.70
2018-03-14T05:33:30.876Z,11.13
2018-03-14T05:35:57.876Z,11.00
2018-03-14T05:38:24.876Z,11.50
2018-03-14T05:40:51.184Z,12.47
2018-03-14T05:43:17.465Z,10.00
2018-03-14T05:45:44.828Z,12.70
2018-03-14T05:48:11.140Z,14.60
2018-03-14T05:50:37.429Z,12.50
2018-03-14T05:53:03.745Z,12.43
2018-03-14T05:55:30.155Z,13.33
2018-03-14T05:57:57.169Z,11.40
2018-03-14T06:00:23.496Z,13.33
2018-03-14T06:02:49.855Z,12.57
2018-03-14T06:05:16.171Z,12.60
2018-03-14T06:07:42.506Z,12.23
2018-03-14T06:10:08.846Z,11.80
2018-03-14T06:12:35.208Z,11.73
2018-03-14T06:15:02.254Z,11.17
2018-03-14T06:17:29.300Z,10.30
2018-03-14T06:19:56.351Z,10.33
2018-03-14T06:22:23.396Z,10.83
2018-03-14T06:24:50.457Z,9.70
2018-03-14T06:27:16.766Z,9.53
2018-03-14T06:29:43.569Z,8.83
2018-03-14T06:32:09.851Z,8.03
2018-03-14T06:34:36.901Z,7.30
2018-03-14T06:37:03.907Z,7.20
2018-03-14T06:39:30.241Z,6.10
2018-03-14T06:41:56.512Z,5.80
2018-03-14T06:44:23.586Z,5.87
2018-03-14T06:46:49.879Z,6.23
2018-03-14T06:49:16.920Z,5.80
2018-03-14T06:51:43.246Z,6.50
2018-03-14T06:54:09.494Z,5.87
2018-03-14T06:56:36.512Z,7.17
2018-03-14T06:59:21.440Z,6.33
2018-03-14T07:05:15.651Z,5.53
2018-03-14T07:07:41.935Z,6.57
2018-03-14T07:10:08.267Z,6.20
2018-03-14T07:12:35.331Z,6.60
2018-03-14T07:15:03.280Z,6.50
2018-03-14T07:17:29.572Z,6.97
2018-03-14T07:19:55.931Z,8.40
2018-03-14T07:22:22.299Z,7.60
2018-03-14T07:24:48.608Z,6.47
2018-03-14T07:27:15.028Z,5.97
2018-03-14T07:29:41.428Z,6.77
2018-03-14T07:32:07.761Z,6.43
2018-03-14T07:34:34.056Z,6.87
2018-03-14T07:37:00.376Z,6.60
2018-03-14T07:39:27.386Z,6.50
2018-03-14T07:41:53.652Z,6.17
2018-03-14T07:44:20.678Z,6.27
2018-03-14T07:46:47.732Z,7.03
2018-03-14T07:49:14.029Z,7.47
2018-03-14T07:51:40.321Z,6.50
2018-03-14T07:54:07.379Z,6.30
2018-03-14T07:56:33.694Z,6.27
2018-03-14T07:59:00.775Z,5.87
2018-03-14T08:01:27.783Z,5.33
2018-03-14T08:03:54.799Z,5.53
2018-03-14T08:06:21.133Z,4.13
2018-03-14T08:08:47.403Z,4.73
2018-03-14T08:11:14.402Z,5.97
2018-03-14T08:13:40.949Z,4.77
2018-03-14T08:16:07.063Z,6.20
2018-03-14T08:18:33.402Z,5.60
2018-03-14T08:20:59.728Z,6.27
2018-03-14T08:23:26.038Z,7.40
2018-03-14T08:25:52.334Z,6.20
2018-03-14T08:28:18.640Z,8.07
2018-03-14T08:30:44.969Z,5.83
2018-03-14T08:33:11.311Z,5.63
2018-03-14T08:35:38.939Z,6.30
2018-03-14T08:38:05.219Z,6.87
2018-03-14T08:40:31.547Z,6.70
2018-03-14T08:42:58.602Z,5.30
2018-03-14T08:45:24.903Z,5.40
2018-03-14T08:47:51.236Z,6.83
2018-03-14T08:50:17.556Z,7.20
2018-03-14T08:52:43.865Z,6.90
2018-03-14T08:55:10.141Z,6.27
2018-03-14T08:57:37.193Z,6.63
2018-03-14T09:00:04.198Z,6.90
2018-03-14T09:02:30.517Z,5.40
2018-03-14T09:04:56.776Z,6.80
2018-03-14T09:07:23.150Z,5.63
2018-03-14T09:09:49.435Z,6.07
2018-03-14T09:12:15.784Z,3.60
2018-03-14T09:14:42.793Z,4.30
2018-03-14T09:17:10.037Z,4.63
2018-03-14T09:19:36.315Z,5.30
2018-03-14T09:22:03.400Z,5.70
2018-03-14T09:24:29.685Z,5.43
2018-03-14T09:26:56.017Z,5.93
2018-03-14T09:29:22.351Z,6.00
2018-03-14T09:31:48.683Z,5.60
2018-03-14T09:34:15.073Z,5.60
2018-03-14T09:36:41.439Z,6.73
2018-03-14T09:39:09.227Z,5.90
2018-03-14T09:41:35.550Z,4.93
2018-03-14T09:44:02.578Z,5.50
2018-03-14T09:46:28.836Z,5.53
2018-03-14T09:48:55.816Z,6.37
2018-03-14T09:51:22.107Z,6.33
2018-03-14T09:53:48.383Z,7.27
2018-03-14T09:56:14.671Z,6.37
2018-03-14T09:58:41.676Z,6.60
2018-03-14T10:01:07.951Z,5.93
2018-03-14T10:03:34.943Z,5.90
2018-03-14T10:06:01.268Z,5.67
2018-03-14T10:08:27.603Z,6.13
2018-03-14T10:10:53.899Z,5.07
2018-03-14T10:13:20.223Z,5.60
2018-03-14T10:15:47.257Z,5.70
2018-03-14T10:18:14.326Z,5.50
2018-03-14T10:20:41.306Z,4.90
2018-03-14T10:23:07.595Z,4.87
2018-03-14T10:25:34.729Z,4.50
2018-03-14T10:28:01.012Z,5.90
2018-03-14T10:30:27.304Z,4.97
2018-03-14T10:32:54.352Z,4.30
2018-03-14T10:35:21.430Z,4.80
2018-03-14T10:37:48.468Z,4.90
2018-03-14T10:40:14.780Z,4.30
2018-03-14T10:42:41.058Z,3.70
2018-03-14T10:45:07.320Z,4.80
2018-03-14T10:47:33.628Z,4.07
2018-03-14T10:49:59.898Z,4.40
2018-03-14T10:52:26.926Z,3.90
2018-03-14T10:54:53.233Z,4.30
2018-03-14T10:57:19.557Z,5.10
2018-03-14T10:59:46.795Z,3.80
2018-03-14T11:02:14.954Z,4.40
2018-03-14T11:04:41.293Z,4.60
2018-03-14T11:07:07.613Z,5.60
2018-03-14T11:09:33.889Z,4.90
2018-03-14T11:12:00.182Z,5.27
2018-03-14T11:14:26.524Z,5.13
2018-03-14T11:16:52.798Z,5.50
2018-03-14T11:19:20.570Z,5.40
2018-03-14T11:21:47.645Z,4.90
2018-03-14T11:24:13.929Z,4.47
2018-03-14T11:26:40.232Z,5.00
2018-03-14T11:29:06.591Z,6.00
2018-03-14T11:31:40.056Z,4.40
2018-03-14T11:34:06.392Z,4.37
2018-03-14T11:36:32.712Z,4.73
2018-03-14T11:38:59.008Z,5.03
2018-03-14T11:41:26.070Z,6.00
2018-03-14T11:43:53.120Z,4.87
2018-03-14T11:46:20.178Z,4.73
2018-03-14T11:48:46.506Z,4.50
2018-03-14T11:51:12.765Z,4.60
2018-03-14T11:53:39.060Z,5.10
2018-03-14T11:56:05.325Z,5.53
2018-03-14T11:58:31.565Z,4.67
2018-03-14T12:00:57.897Z,5.57
2018-03-14T12:03:24.196Z,5.83
2018-03-14T12:05:50.523Z,5.87
2018-03-14T12:08:16.807Z,4.80
2018-03-14T12:10:43.130Z,6.10
2018-03-14T12:13:09.423Z,5.80
2018-03-14T12:15:36.472Z,6.37
2018-03-14T12:18:02.786Z,5.70
2018-03-14T12:20:29.059Z,5.77
2018-03-14T12:22:55.367Z,4.80
2018-03-14T12:25:21.678Z,5.97
2018-03-14T12:27:48.022Z,5.27
2018-03-14T12:30:14.342Z,5.70
2018-03-14T12:32:40.682Z,6.20
2018-03-14T12:35:13.919Z,4.30
2018-03-14T12:37:40.220Z,4.90
2018-03-14T12:40:06.484Z,4.80
2018-03-14T12:42:32.807Z,4.90
2018-03-14T12:44:59.125Z,4.60
2018-03-14T12:47:25.409Z,6.17
2018-03-14T12:49:52.412Z,4.60
2018-03-14T12:52:18.717Z,4.80
2018-03-14T12:54:45.023Z,4.30
2018-03-14T12:57:11.341Z,4.90
2018-03-14T12:59:37.606Z,4.47
2018-03-14T13:02:03.943Z,4.77
2018-03-14T13:04:30.288Z,5.00
2018-03-14T13:06:56.623Z,5.17
2018-03-14T13:09:22.967Z,5.53
2018-03-14T13:11:49.356Z,5.50
2018-03-14T13:14:15.727Z,5.90
2018-03-14T13:16:42.028Z,5.30
2018-03-14T13:19:08.352Z,6.03
2018-03-14T13:21:34.686Z,5.63
2018-03-14T13:24:01.040Z,6.73
2018-03-14T13:26:27.415Z,6.23
2018-03-14T13:28:53.709Z,5.70
2018-03-14T13:31:20.056Z,6.77
2018-03-14T13:33:46.383Z,6.40
2018-03-14T13:36:12.724Z,6.53
2018-03-14T13:38:39.036Z,5.80
2018-03-14T13:41:05.395Z,5.50
2018-03-14T13:43:31.700Z,5.40
2018-03-14T13:45:58.006Z,5.70
2018-03-14T13:48:24.342Z,7.03
2018-03-14T13:50:50.640Z,6.30
2018-03-14T13:53:16.990Z,6.50
2018-03-14T13:55:43.259Z,5.80
2018-03-14T13:58:09.584Z,5.03
2018-03-14T14:00:35.918Z,5.37
2018-03-14T14:03:02.239Z,5.73
2018-03-14T14:05:28.506Z,5.50
2018-03-14T14:07:55.691Z,5.90
2018-03-14T14:10:21.991Z,5.33
2018-03-14T14:12:49.041Z,6.30
2018-03-14T14:15:16.103Z,5.13
2018-03-14T14:17:43.277Z,7.63
2018-03-14T14:20:09.599Z,6.37
2018-03-14T14:22:35.891Z,6.20
2018-03-14T14:25:02.713Z,5.93
2018-03-14T14:27:29.098Z,5.63
2018-03-14T14:29:55.496Z,5.83
2018-03-14T14:32:21.780Z,5.60
2018-03-14T14:34:48.135Z,5.40
2018-03-14T14:37:14.454Z,6.53
2018-03-14T14:39:40.738Z,6.00
2018-03-14T14:42:07.767Z,6.23
2018-03-14T14:44:34.029Z,6.10
2018-03-14T14:47:00.340Z,5.03
2018-03-14T14:49:27.394Z,5.53
2018-03-14T14:51:54.425Z,5.50
2018-03-14T14:54:20.773Z,5.57
2018-03-14T14:56:47.823Z,5.30
2018-03-14T14:59:14.132Z,5.10
2018-03-14T15:01:40.456Z,5.00
2018-03-14T15:04:06.749Z,3.97
2018-03-14T15:06:34.141Z,4.00
2018-03-14T15:09:00.396Z,3.83
2018-03-14T15:11:27.401Z,4.87
2018-03-14T15:13:53.718Z,3.90
2018-03-14T15:16:20.006Z,4.50
2018-03-14T15:18:47.064Z,4.10
2018-03-14T15:21:13.486Z,5.07
2018-03-14T15:23:39.788Z,4.33
2018-03-14T15:26:06.107Z,4.73
2018-03-14T15:28:32.402Z,4.53
2018-03-14T15:30:58.742Z,4.97
2018-03-14T15:33:25.065Z,5.23
2018-03-14T15:35:51.353Z,5.43
2018-03-14T15:38:17.644Z,5.57
2018-03-14T15:40:44.032Z,4.20
2018-03-14T15:43:10.439Z,5.20
2018-03-14T15:45:36.820Z,4.40
2018-03-14T15:48:03.175Z,4.70
2018-03-14T15:50:29.504Z,4.47
2018-03-14T15:52:55.865Z,4.67
2018-03-14T15:55:22.151Z,5.50
2018-03-14T15:57:48.453Z,4.90
2018-03-14T16:00:15.502Z,5.47
2018-03-14T16:02:42.623Z,5.27
2018-03-14T16:05:08.942Z,5.10
2018-03-14T16:07:35.252Z,5.57
2018-03-14T16:10:02.398Z,5.80
2018-03-14T16:12:28.694Z,5.83
2018-03-14T16:14:55.678Z,6.13
2018-03-14T16:17:21.972Z,5.23
2018-03-14T16:19:49.093Z,4.70
2018-03-14T16:22:15.389Z,5.10
2018-03-14T16:24:41.665Z,5.10
2018-03-14T16:27:08.775Z,4.90
2018-03-14T16:29:35.293Z,5.93
2018-03-14T16:32:01.631Z,5.27
2018-03-14T16:34:27.933Z,6.23
2018-03-14T16:36:55.037Z,6.07
2018-03-14T16:39:22.193Z,5.47
2018-03-14T16:41:48.474Z,6.70
2018-03-14T16:44:14.777Z,6.10
2018-03-14T16:46:41.722Z,6.50
2018-03-14T16:49:08.028Z,5.77
2018-03-14T16:51:35.862Z,6.10
2018-03-14T16:54:02.172Z,6.30
2018-03-14T16:56:29.282Z,5.80
2018-03-14T16:58:55.574Z,6.30
2018-03-14T17:01:21.857Z,6.67
2018-03-14T17:03:48.962Z,5.53
2018-03-14T17:06:15.269Z,7.70
2018-03-14T17:08:41.590Z,6.77
2018-03-14T17:11:07.973Z,6.70
2018-03-14T17:13:34.221Z,7.33
2018-03-14T17:16:00.521Z,6.20
2018-03-14T17:18:26.871Z,7.50
2018-03-14T17:20:53.160Z,6.63
2018-03-14T17:23:19.444Z,7.67
2018-03-14T17:25:45.724Z,6.67
2018-03-14T17:28:12.057Z,6.47
2018-03-14T17:30:38.339Z,7.60
2018-03-14T17:33:04.644Z,6.70
2018-03-14T17:35:30.981Z,6.67
2018-03-14T17:37:57.312Z,8.17
2018-03-14T17:40:23.653Z,7.30
2018-03-14T17:42:50.023Z,6.87
2018-03-14T17:45:17.052Z,9.10
2018-03-14T17:47:43.436Z,7.00
2018-03-14T17:50:09.826Z,6.33
2018-03-14T17:52:36.896Z,7.20
2018-03-14T17:55:03.184Z,7.80
2018-03-14T17:57:29.500Z,7.43
2018-03-14T17:59:55.761Z,7.57
2018-03-14T18:02:22.068Z,7.70
2018-03-14T18:04:48.390Z,8.50
2018-03-14T18:07:14.708Z,8.20
2018-03-14T18:09:41.041Z,8.90
2018-03-14T18:12:07.396Z,8.93
2018-03-14T18:14:33.710Z,11.00
2018-03-14T18:17:00.019Z,9.90
2018-03-14T18:19:26.262Z,8.80
2018-03-14T18:21:52.514Z,9.30
2018-03-14T18:24:21.517Z,9.70
2018-03-14T18:26:48.670Z,9.17
2018-03-14T18:29:15.054Z,8.97
2018-03-14T18:31:41.463Z,10.77
2018-03-14T18:34:07.805Z,10.20
2018-03-14T18:36:34.214Z,9.50
2018-03-14T18:39:04.048Z,9.70
2018-03-14T18:41:30.410Z,10.37
2018-03-14T18:43:56.778Z,10.00
2018-03-14T18:46:23.108Z,11.93
2018-03-14T18:48:49.546Z,10.13
2018-03-14T18:51:16.833Z,10.10
2018-03-14T18:53:44.195Z,10.43
2018-03-14T18:56:10.525Z,10.20
2018-03-14T18:58:36.830Z,11.23
2018-03-14T19:01:03.172Z,11.43
2018-03-14T19:03:30.221Z,10.77
2018-03-14T19:05:57.284Z,12.70
2018-03-14T19:08:23.652Z,12.00
2018-03-14T19:10:49.992Z,12.07
2018-03-14T19:13:16.427Z,12.10
2018-03-14T19:15:42.798Z,11.70
2018-03-14T19:18:09.898Z,11.30
2018-03-14T19:20:36.275Z,11.57
2018-03-14T19:23:02.650Z,11.87
2018-03-14T19:25:29.013Z,11.10
2018-03-14T19:27:55.380Z,12.60
2018-03-14T19:30:21.766Z,12.73
2018-03-14T19:32:48.193Z,12.40
2018-03-14T19:35:14.600Z,12.77
2018-03-14T19:37:41.065Z,12.60
2018-03-14T19:40:07.427Z,12.17
2018-03-14T19:42:33.791Z,10.93
2018-03-14T19:45:00.118Z,11.90
2018-03-14T19:47:26.551Z,12.00
2018-03-14T19:49:53.031Z,12.73
2018-03-14T19:52:19.608Z,12.27
2018-03-14T19:54:46.688Z,12.00
2018-03-14T19:57:13.096Z,13.23
2018-03-14T19:59:40.348Z,12.37
2018-03-14T20:02:06.693Z,11.10
2018-03-14T20:04:33.147Z,12.07
2018-03-14T20:06:59.585Z,12.23
2018-03-14T20:09:26.068Z,11.17
2018-03-14T20:11:53.324Z,12.13
2018-03-14T20:14:20.429Z,14.70
2018-03-14T20:16:46.748Z,12.03
2018-03-14T20:19:13.339Z,13.83
2018-03-14T20:21:40.468Z,13.10
2018-03-14T20:24:06.801Z,12.07
2018-03-14T20:26:33.298Z,12.50
2018-03-14T20:28:59.644Z,11.93
2018-03-14T20:31:25.975Z,13.20
2018-03-14T20:33:52.437Z,15.20
2018-03-14T20:36:18.873Z,14.17
2018-03-14T20:38:45.275Z,12.47
2018-03-14T20:41:11.665Z,15.27
2018-03-14T20:43:38.786Z,13.63
2018-03-14T20:46:06.002Z,13.90
2018-03-14T20:48:32.504Z,11.80
2018-03-14T20:50:59.312Z,11.77
2018-03-14T20:53:26.430Z,12.60
2018-03-14T20:55:52.799Z,14.53
2018-03-14T20:58:19.079Z,12.27
2018-03-14T21:00:45.400Z,13.60
2018-03-14T21:03:11.764Z,12.47
2018-03-14T21:05:38.115Z,12.10
2018-03-14T21:08:04.417Z,15.00
2018-03-14T21:10:30.779Z,15.43
2018-03-14T21:12:57.135Z,13.80
2018-03-14T21:15:27.096Z,13.67
2018-03-14T21:17:53.575Z,14.80
2018-03-14T21:26:03.973Z,11.43
2018-03-14T21:28:30.558Z,13.30
2018-03-14T21:30:56.881Z,14.10
2018-03-14T21:33:23.292Z,13.17
2018-03-14T21:35:50.428Z,15.30
2018-03-14T21:38:20.023Z,15.73
2018-03-14T21:40:49.645Z,15.07
2018-03-14T21:43:29.577Z,15.57
2018-03-14T21:45:58.076Z,14.87
2018-03-14T21:48:32.635Z,13.17
2018-03-14T21:50:59.237Z,12.63
2018-03-14T21:53:37.055Z,13.30
2018-03-14T21:56:03.427Z,15.43
2018-03-14T21:58:29.744Z,15.23
2018-03-14T22:00:56.033Z,14.70
2018-03-14T22:03:22.361Z,13.57
2018-03-14T22:05:49.514Z,14.90
2018-03-14T22:08:16.658Z,12.60
2018-03-14T22:10:42.932Z,16.87
2018-03-14T22:13:09.385Z,15.37
2018-03-14T22:15:35.803Z,16.70
2018-03-14T22:18:02.122Z,19.70
2018-03-14T22:20:28.520Z,17.20
2018-03-14T22:22:54.855Z,17.60
2018-03-14T22:25:21.201Z,14.80
2018-03-14T22:27:48.306Z,13.30
2018-03-14T22:30:14.624Z,13.93
2018-03-14T22:32:40.936Z,14.53
2018-03-14T22:35:07.556Z,14.80
2018-03-14T22:37:34.611Z,16.23
2018-03-14T22:40:00.985Z,16.07
2018-03-14T22:42:27.259Z,15.70
2018-03-14T22:44:54.318Z,15.87
2018-03-14T22:47:27.596Z,15.10
2018-03-14T22:49:54.674Z,16.00
2018-03-14T22:52:20.989Z,15.30
2018-03-14T22:54:47.284Z,14.43
2018-03-14T22:57:13.782Z,15.77
2018-03-14T22:59:40.070Z,16.10
2018-03-14T23:02:07.097Z,15.67
2018-03-14T23:04:33.401Z,16.43
2018-03-14T23:06:59.729Z,15.07
2018-03-14T23:09:26.167Z,14.53
2018-03-14T23:11:53.280Z,14.40
2018-03-14T23:14:19.605Z,16.13
2018-03-14T23:16:46.643Z,14.73
2018-03-14T23:19:13.728Z,16.30
2018-03-14T23:21:40.096Z,15.40
2018-03-14T23:24:06.434Z,14.90
2018-03-14T23:26:32.787Z,14.60
2018-03-14T23:29:00.121Z,16.33
2018-03-14T23:31:26.482Z,14.57
2018-03-14T23:33:53.515Z,16.63
2018-03-14T23:36:20.645Z,15.70
2018-03-14T23:38:47.017Z,15.93
2018-03-14T23:41:14.097Z,15.60
2018-03-14T23:43:40.466Z,16.20
2018-03-14T23:46:06.813Z,15.20
2018-03-14T23:48:33.153Z,17.70
2018-03-14T23:51:00.201Z,16.20
2018-03-14T23:53:26.509Z,16.23
2018-03-14T23:55:52.965Z,15.40
2018-03-14T23:58:19.999Z,14.00
